Flight Track Log - Related Links

Times and Time Zones

All times are in EDT time to prevent confusion due to time zone crossing. See the DAL863 flight status page for this flight to view local times or setup timezone preferences in your user account.

Time Position Orientation Groundspeed Altitude Reporting Facility
EDT Latitude Longitude Course Direction KTS MPH feet Rate Location/Type
Tue 12:30:32 PM 40.6320 -73.7810 121° Southeast 168 193 400  Level FlightAware ADS-B
Tue 12:30:47 PM 40.6220 -73.7710 143° Southeast 175 201 1,100 2,000 Climbing FlightAware ADS-B
Tue 12:31:02 PM 40.6090 -73.7680 170° South 203 234 1,400 1,745 Climbing FlightAware ADS-B
Tue 12:31:42 PM 40.5680 -73.7750 187° South 253 291 2,700 2,314 Climbing FlightAware ADS-B
Tue 12:32:12 PM 40.5340 -73.7930 202° Southwest 267 307 4,100 2,073 Climbing FlightAware ADS-B
Tue 12:32:37 PM 40.5030 -73.8070 199° South 266 306 4,600 1,895 Climbing FlightAware ADS-B
Tue 12:33:09 PM 40.4647 -73.8236 198° South 270 311 5,900 2,553 Climbing FlightAware ADS-B
Tue 12:33:24 PM 40.4463 -73.8317 199° South 277 319 6,600 2,400 Climbing FlightAware ADS-B
Tue 12:33:34 PM 40.4359 -73.8365 199° South 279 321 6,900 2,571 Climbing FlightAware ADS-B
Tue 12:33:38 PM 40.4308 -73.8395 204° Southwest 281 323 7,200 3,231 Climbing FlightAware ADS-B
Tue 12:33:47 PM 40.4202 -73.8481 212° Southwest 285 328 7,600 2,857 Climbing FlightAware ADS-B
Tue 12:33:59 PM 40.4088 -73.8629 225° Southwest 287 330 8,200 3,600 Climbing FlightAware ADS-B
Tue 12:34:02 PM 40.4059 -73.8682 234° Southwest 286 329 8,500 3,692 Climbing FlightAware ADS-B
Tue 12:34:12 PM 40.3996 -73.8837 242° Southwest 287 330 9,000 2,667 Climbing FlightAware ADS-B
Tue 12:34:29 PM 40.3909 -73.9096 246° West 290 334 9,700 1,959 Climbing FlightAware ADS-B
Tue 12:35:01 PM 40.3735 -73.9647 248° West 321 369 10,600 1,355 Climbing FlightAware ADS-B
Tue 12:35:31 PM 40.3554 -74.0222 248° West 357 411 11,100 1,475 Climbing FlightAware ADS-B
Tue 12:36:02 PM 40.3346 -74.0877 247° West 375 432 12,100 1,548 Climbing FlightAware ADS-B
Tue 12:36:33 PM 40.3137 -74.1526 247° West 383 441 12,700 1,355 Climbing FlightAware ADS-B
Tue 12:37:04 PM 40.2919 -74.2198 247° West 387 445 13,500 1,065 Climbing FlightAware ADS-B
Tue 12:37:35 PM 40.2704 -74.2859 247° West 390 449 13,800 1,548 Climbing FlightAware ADS-B
Tue 12:38:06 PM 40.2487 -74.3526 247° West 391 450 15,100 2,361 Climbing FlightAware ADS-B
Tue 12:38:36 PM 40.2272 -74.4186 247° West 397 457 16,200 2,211 Climbing FlightAware ADS-B
Tue 12:39:03 PM 40.2086 -74.4800 248° West 401 461 17,200 2,211 Climbing FlightAware ADS-B
Tue 12:39:14 PM 40.2036 -74.5039 255° West 401 461 17,600 2,108 Climbing FlightAware ADS-B
Tue 12:39:40 PM 40.1961 -74.5673 261° West 406 467 18,500 2,000 Climbing FlightAware ADS-B
Tue 12:40:14 PM 40.1897 -74.6512 264° West 412 474 19,600 1,969 Climbing FlightAware ADS-B
Tue 12:40:44 PM 40.1842 -74.7266 265° West 417 480 20,600 1,935 Climbing FlightAware ADS-B
Tue 12:41:16 PM 40.1780 -74.8067 264° West 419 482 21,600 1,969 Climbing FlightAware ADS-B
Tue 12:41:48 PM 40.1715 -74.8875 264° West 421 484 22,700 1,905 Climbing FlightAware ADS-B
Tue 12:42:19 PM 40.1651 -74.9667 264° West 424 488 23,600 1,714 Climbing FlightAware ADS-B
Tue 12:42:51 PM 40.1584 -75.0474 264° West 428 493 24,500 1,619 Climbing FlightAware ADS-B
Tue 12:43:22 PM 40.1516 -75.1282 264° West 433 498 25,300 1,452 Climbing FlightAware ADS-B
Tue 12:43:53 PM 40.1448 -75.2095 264° West 437 503 26,000 1,429 Climbing FlightAware ADS-B
Tue 12:44:25 PM 40.1377 -75.2937 264° West 438 504 26,800 1,524 Climbing FlightAware ADS-B
Tue 12:44:56 PM 40.1309 -75.3745 264° West 440 506 27,600 1,377 Climbing FlightAware ADS-B
Tue 12:45:26 PM 40.1240 -75.4547 264° West 443 510 28,200 1,400 Climbing FlightAware ADS-B
Tue 12:45:56 PM 40.1172 -75.5336 264° West 442 509 29,000 1,645 Climbing FlightAware ADS-B
Tue 12:46:28 PM 40.1100 -75.6169 264° West 437 503 29,900 1,524 Climbing FlightAware ADS-B
Tue 12:46:59 PM 40.1029 -75.6979 263° West 437 503 30,600 1,475 Climbing FlightAware ADS-B
Tue 12:47:29 PM 40.0959 -75.7774 263° West 434 499 31,400 1,500 Climbing FlightAware ADS-B
Tue 12:47:59 PM 40.0889 -75.8552 263° West 430 495 32,100 1,377 Climbing FlightAware ADS-B
Tue 12:48:30 PM 40.0819 -75.9338 263° West 428 493 32,800 1,333 Climbing FlightAware ADS-B
Tue 12:49:02 PM 40.0746 -76.0142 263° West 427 491 33,500 1,238 Climbing FlightAware ADS-B
Tue 12:49:33 PM 40.0673 -76.0944 263° West 425 489 34,100 1,180 Climbing FlightAware ADS-B
Tue 12:50:03 PM 40.0603 -76.1708 263° West 424 488 34,700 1,082 Climbing FlightAware ADS-B
Tue 12:50:34 PM 40.0532 -76.2478 263° West 422 486 35,200 984 Climbing FlightAware ADS-B
Tue 12:51:04 PM 40.0460 -76.3255 263° West 422 486 35,700 762 Climbing FlightAware ADS-B
Tue 12:51:37 PM 40.0384 -76.4065 263° West 425 489 36,000 257 Climbing FlightAware ADS-B
Tue 12:52:14 PM 40.0294 -76.5015 263° West 426 490 36,000  Level FlightAware ADS-B
Tue 12:52:46 PM 40.0215 -76.5845 263° West 429 494 36,000  Level FlightAware ADS-B
Tue 12:53:30 PM 40.0107 -76.6959 263° West 433 498 36,000  Level FlightAware ADS-B
Tue 12:54:06 PM 40.0016 -76.7891 263° West 434 499 36,000  Level FlightAware ADS-B
Tue 12:54:37 PM 39.9935 -76.8718 263° West 434 499 36,000  Level FlightAware ADS-B
Tue 12:55:09 PM 39.9853 -76.9542 263° West 435 501 36,000  Level FlightAware ADS-B
Tue 12:55:49 PM 39.9752 -77.0563 263° West 435 501 36,000  Level FlightAware ADS-B
Tue 12:56:20 PM 39.9670 -77.1376 263° West 434 499 36,000  Level FlightAware ADS-B
Tue 12:57:12 PM 39.9540 -77.2650 262° West 433 498 36,000  Level FlightAware ADS-B
Tue 12:58:02 PM 39.9530 -77.3900 269° West 427 491 36,000  Level FlightAware ADS-B
Tue 12:58:47 PM 39.9580 -77.5090 273° West 426 490 36,000  Level FlightAware ADS-B
Tue 12:59:32 PM 39.9610 -77.6220 272° West 424 488 36,000  Level FlightAware ADS-B
Tue 01:00:17 PM 39.9650 -77.7310 273° West 423 487 36,000  Level FlightAware ADS-B
Tue 01:00:57 PM 39.9680 -77.8370 272° West 422 486 36,000  Level FlightAware ADS-B
Tue 01:01:42 PM 39.9710 -77.9460 272° West 422 486 36,000  Level FlightAware ADS-B
Tue 01:02:32 PM 39.9740 -78.0690 272° West 424 488 36,000  Level FlightAware ADS-B
Tue 01:03:12 PM 39.9770 -78.1690 272° West 424 488 36,000  Level FlightAware ADS-B
Tue 01:03:57 PM 39.9800 -78.2890 272° West 425 489 36,000  Level FlightAware ADS-B
Tue 01:04:37 PM 39.9830 -78.3900 272° West 427 491 36,000  Level FlightAware ADS-B
Tue 01:05:22 PM 39.9850 -78.5040 271° West 429 494 36,000  Level FlightAware ADS-B
Tue 01:06:02 PM 39.9880 -78.6090 272° West 430 495 36,000  Level FlightAware ADS-B
Tue 01:06:42 PM 39.9900 -78.7190 271° West 431 496 36,000  Level FlightAware ADS-B
Tue 01:07:47 PM 39.9940 -78.8840 272° West 432 497 36,000  Level FlightAware ADS-B
Tue 01:08:37 PM 39.9960 -79.0070 271° West 434 499 36,000  Level FlightAware ADS-B
Tue 01:09:17 PM 39.9980 -79.1230 271° West 434 499 36,000  Level FlightAware ADS-B
Tue 01:09:57 PM 40.0000 -79.2210 272° West 435 501 36,000  Level FlightAware ADS-B
Tue 01:10:37 PM 40.0020 -79.3250 271° West 435 501 36,000  Level FlightAware ADS-B
Tue 01:11:22 PM 40.0040 -79.4490 271° West 436 502 36,000  Level FlightAware ADS-B
Tue 01:12:07 PM 40.0060 -79.5650 271° West 436 502 36,000  Level FlightAware ADS-B
Tue 01:12:47 PM 40.0070 -79.6750 271° West 437 503 36,000  Level FlightAware ADS-B
Tue 01:13:27 PM 40.0080 -79.7730 271° West 438 504 36,000  Level FlightAware ADS-B
Tue 01:14:12 PM 40.0100 -79.9000 271° West 440 506 36,000  Level FlightAware ADS-B
Tue 01:14:52 PM 40.0110 -80.0100 271° West 441 507 36,000  Level FlightAware ADS-B
Tue 01:15:37 PM 40.0120 -80.1200 271° West 443 510 36,000  Level FlightAware ADS-B
Tue 01:16:17 PM 40.0130 -80.2280 271° West 445 512 36,000  Level FlightAware ADS-B
Tue 01:16:57 PM 40.0140 -80.3360 271° West 446 513 36,000  Level FlightAware ADS-B
Tue 01:17:42 PM 40.0150 -80.4660 271° West 449 517 36,000  Level FlightAware ADS-B
Tue 01:18:22 PM 40.0160 -80.5690 271° West 451 519 36,000  Level FlightAware ADS-B
Tue 01:19:07 PM 40.0170 -80.6930 271° West 453 521 36,000  Level FlightAware ADS-B
Tue 01:19:37 PM 40.0170 -80.7710 270° West 454 522 36,000  Level FlightAware ADS-B
Tue 01:20:32 PM 40.0120 -80.9230 268° West 458 527 36,000  Level FlightAware ADS-B
Tue 01:21:12 PM 40.0070 -81.0360 267° West 459 528 36,000  Level FlightAware ADS-B
Tue 01:21:52 PM 40.0010 -81.1450 266° West 461 531 36,000  Level FlightAware ADS-B
Tue 01:22:32 PM 39.9950 -81.2590 266° West 462 532 36,000  Level FlightAware ADS-B
Tue 01:23:12 PM 39.9900 -81.3670 267° West 462 532 36,000  Level FlightAware ADS-B
Tue 01:24:02 PM 39.9820 -81.5110 266° West 464 534 36,000  Level FlightAware ADS-B
Tue 01:24:42 PM 39.9760 -81.6220 266° West 465 535 36,000  Level FlightAware ADS-B
Tue 01:25:22 PM 39.9700 -81.7290 266° West 464 534 36,000  Level FlightAware ADS-B
Tue 01:26:07 PM 39.9620 -81.8580 265° West 463 533 36,000  Level FlightAware ADS-B
Tue 01:26:42 PM 39.9570 -81.9550 266° West 463 533 36,000  Level FlightAware ADS-B
Tue 01:27:32 PM 39.9490 -82.0940 266° West 462 532 36,000  Level FlightAware ADS-B
Tue 01:28:12 PM 39.9430 -82.2010 266° West 461 531 36,000  Level FlightAware ADS-B
Tue 01:28:52 PM 39.9360 -82.3160 265° West 461 531 36,000  Level FlightAware ADS-B
Tue 01:29:37 PM 39.9290 -82.4360 266° West 461 531 36,000  Level FlightAware ADS-B
Tue 01:30:17 PM 39.9220 -82.5480 265° West 461 531 36,000  Level FlightAware ADS-B
Tue 01:30:57 PM 39.9150 -82.6580 265° West 463 533 36,000  Level FlightAware ADS-B
Tue 01:31:57 PM 39.9040 -82.8190 265° West 465 535 36,000  Level FlightAware ADS-B
Tue 01:32:37 PM 39.8970 -82.9330 265° West 466 536 36,000  Level FlightAware ADS-B
Tue 01:33:32 PM 39.8860 -83.0860 265° West 467 537 36,000  Level FlightAware ADS-B
Tue 01:34:17 PM 39.8780 -83.2080 265° West 469 540 36,000  Level FlightAware ADS-B
Tue 01:34:52 PM 39.8710 -83.3140 265° West 470 541 36,000  Level FlightAware ADS-B
Tue 01:35:42 PM 39.8610 -83.4520 265° West 471 542 36,000  Level FlightAware ADS-B
Tue 01:36:22 PM 39.8510 -83.5660 264° West 475 547 36,000  Level FlightAware ADS-B
Tue 01:37:07 PM 39.8270 -83.6980 257° West 477 549 36,000  Level FlightAware ADS-B
Tue 01:37:47 PM 39.8090 -83.8070 258° West 476 548 36,000  Level FlightAware ADS-B
Tue 01:38:27 PM 39.7910 -83.9210 258° West 475 547 36,000  Level FlightAware ADS-B
Tue 01:39:07 PM 39.7730 -84.0320 258° West 475 547 36,000  Level FlightAware ADS-B
Tue 01:39:52 PM 39.7540 -84.1530 258° West 475 547 36,000  Level FlightAware ADS-B
Tue 01:40:27 PM 39.7400 -84.2390 258° West 475 547 36,000  Level FlightAware ADS-B
Tue 01:41:17 PM 39.7200 -84.3580 258° West 475 547 36,000 286 Level FlightAware ADS-B
Tue 01:42:12 PM 39.6910 -84.5330 258° West 472 543 36,500 1,263 Climbing FlightAware ADS-B
Tue 01:42:52 PM 39.6730 -84.6470 258° West 455 524 38,000 900 Climbing FlightAware ADS-B
Tue 01:43:52 PM 39.6460 -84.8090 258° West 454 522 38,000  Level FlightAware ADS-B
Tue 01:44:27 PM 39.6300 -84.9010 257° West 457 526 38,000  Level FlightAware ADS-B
Tue 01:45:27 PM 39.6020 -85.0610 257° West 461 531 38,000  Level FlightAware ADS-B
Tue 01:46:12 PM 39.5820 -85.1700 257° West 461 531 38,000  Level FlightAware ADS-B
Tue 01:46:52 PM 39.5660 -85.2610 257° West 461 531 38,000  Level FlightAware ADS-B
Tue 01:47:37 PM 39.5390 -85.4110 257° West 461 531 38,000  Level FlightAware ADS-B
Tue 01:48:17 PM 39.5200 -85.5190 257° West 461 531 38,000  Level FlightAware ADS-B
Tue 01:48:57 PM 39.5020 -85.6170 257° West 460 529 38,000  Level FlightAware ADS-B
Tue 01:49:32 PM 39.4840 -85.7190 257° West 457 526 38,000  Level FlightAware ADS-B
Tue 01:50:22 PM 39.4590 -85.8510 256° West 453 521 38,000  Level FlightAware ADS-B
Tue 01:51:07 PM 39.4380 -85.9670 257° West 452 520 38,000  Level FlightAware ADS-B
Tue 01:51:47 PM 39.4200 -86.0670 257° West 451 519 38,000  Level FlightAware ADS-B
Tue 01:52:27 PM 39.3980 -86.1820 256° West 449 517 38,000  Level FlightAware ADS-B
Tue 01:53:12 PM 39.3770 -86.2960 257° West 447 514 38,000  Level FlightAware ADS-B
Tue 01:53:47 PM 39.3600 -86.3850 256° West 447 514 38,000  Level FlightAware ADS-B
Tue 01:54:32 PM 39.3370 -86.5040 256° West 446 513 38,000  Level FlightAware ADS-B
Tue 01:55:17 PM 39.3170 -86.6130 257° West 445 512 38,000  Level FlightAware ADS-B
Tue 01:55:57 PM 39.2960 -86.7230 256° West 444 511 38,000  Level FlightAware ADS-B
Tue 01:56:42 PM 39.2730 -86.8420 256° West 443 510 38,000  Level FlightAware ADS-B
Tue 01:57:22 PM 39.2530 -86.9420 256° West 441 507 38,000  Level FlightAware ADS-B
Tue 01:58:02 PM 39.2330 -87.0440 256° West 441 507 38,000  Level FlightAware ADS-B
Tue 01:58:47 PM 39.2110 -87.1560 256° West 441 507 38,000  Level FlightAware ADS-B
Tue 01:59:27 PM 39.1910 -87.2580 256° West 441 507 38,000  Level FlightAware ADS-B
Tue 02:00:12 PM 39.1680 -87.3750 256° West 441 507 38,000  Level FlightAware ADS-B
Tue 02:00:52 PM 39.1480 -87.4760 256° West 441 507 38,000  Level FlightAware ADS-B
Tue 02:01:37 PM 39.1260 -87.5880 256° West 441 507 38,000  Level FlightAware ADS-B
Tue 02:02:17 PM 39.1050 -87.6900 255° West 443 510 38,000  Level FlightAware ADS-B
Tue 02:02:57 PM 39.0850 -87.7890 255° West 443 510 38,000  Level FlightAware ADS-B
Tue 02:03:42 PM 39.0610 -87.9100 256° West 444 511 38,000  Level FlightAware ADS-B
Tue 02:04:22 PM 39.0400 -88.0130 255° West 445 512 38,000  Level FlightAware ADS-B
Tue 02:04:57 PM 39.0220 -88.1000 255° West 445 512 38,000  Level FlightAware ADS-B
Tue 02:05:37 PM 39.0010 -88.1990 255° West 446 513 38,000  Level FlightAware ADS-B
Tue 02:06:22 PM 38.9770 -88.3180 255° West 448 516 38,000  Level FlightAware ADS-B
Tue 02:07:02 PM 38.9560 -88.4170 255° West 448 516 38,000  Level FlightAware ADS-B
Tue 02:07:37 PM 38.9370 -88.5080 255° West 448 516 38,000  Level FlightAware ADS-B
Tue 02:08:27 PM 38.9100 -88.6380 255° West 448 516 38,000  Level FlightAware ADS-B
Tue 02:09:12 PM 38.8850 -88.7540 255° West 448 516 38,000  Level FlightAware ADS-B
Tue 02:09:52 PM 38.8640 -88.8530 255° West 447 514 38,000  Level FlightAware ADS-B
Tue 02:10:32 PM 38.8420 -88.9580 255° West 447 514 38,000 -71 Level FlightAware ADS-B
Tue 02:11:17 PM 38.8180 -89.0710 255° West 444 511 37,900 -1,059 Descending FlightAware ADS-B
Tue 02:11:57 PM 38.7960 -89.1720 254° West 456 525 36,500 -1,425 Descending FlightAware ADS-B
Tue 02:12:37 PM 38.7720 -89.2820 254° West 478 550 36,000 -353 Descending FlightAware ADS-B
Tue 02:13:22 PM 38.7460 -89.4010 254° West 474 545 36,000  Level FlightAware ADS-B
Tue 02:13:57 PM 38.7260 -89.4950 255° West 469 540 36,000  Level FlightAware ADS-B
Tue 02:14:47 PM 38.6980 -89.6220 254° West 465 535 36,000  Level FlightAware ADS-B
Tue 02:15:42 PM 38.6660 -89.7650 254° West 461 531 36,000  Level FlightAware ADS-B
Tue 02:16:22 PM 38.6430 -89.8680 254° West 460 529 36,000  Level FlightAware ADS-B
Tue 02:17:07 PM 38.6150 -89.9950 254° West 460 529 36,000  Level FlightAware ADS-B
Tue 02:17:47 PM 38.5910 -90.1020 254° West 461 531 36,000  Level FlightAware ADS-B
Tue 02:18:27 PM 38.5690 -90.1980 254° West 463 533 36,000  Level FlightAware ADS-B
Tue 02:19:02 PM 38.5470 -90.2940 254° West 464 534 36,000  Level FlightAware ADS-B
Tue 02:19:47 PM 38.5220 -90.4010 253° West 464 534 36,000  Level FlightAware ADS-B
Tue 02:20:32 PM 38.4940 -90.5260 254° West 465 535 36,000  Level FlightAware ADS-B
Tue 02:21:12 PM 38.4700 -90.6310 254° West 465 535 36,000  Level FlightAware ADS-B
Tue 02:21:52 PM 38.4480 -90.7200 253° West 465 535 36,000  Level FlightAware ADS-B
Tue 02:22:42 PM 38.4220 -90.8320 254° West 465 535 36,000  Level FlightAware ADS-B
Tue 02:23:22 PM 38.4000 -90.9210 253° West 465 535 36,000  Level FlightAware ADS-B
Tue 02:24:02 PM 38.3790 -91.0100 253° West 465 535 36,000  Level FlightAware ADS-B
Tue 02:24:42 PM 38.3570 -91.0990 253° West 465 535 36,000  Level FlightAware ADS-B
Tue 02:25:22 PM 38.3360 -91.1890 253° West 465 535 36,000  Level FlightAware ADS-B
Tue 02:26:12 PM 38.3090 -91.3000 253° West 465 535 36,000  Level FlightAware ADS-B
Tue 02:26:52 PM 38.2880 -91.3890 253° West 465 535 36,000  Level FlightAware ADS-B
Tue 02:27:32 PM 38.2660 -91.4780 253° West 465 535 36,000  Level FlightAware ADS-B
Tue 02:28:12 PM 38.2450 -91.5670 253° West 465 535 36,000  Level FlightAware ADS-B
Tue 02:28:52 PM 38.2240 -91.6560 253° West 465 535 36,000  Level FlightAware ADS-B
Tue 02:29:42 PM 38.1970 -91.7680 253° West 465 535 36,000  Level FlightAware ADS-B
Tue 02:30:22 PM 38.1750 -91.8570 253° West 465 535 36,000  Level FlightAware ADS-B
Tue 02:31:32 PM 38.0820 -92.2560 254° West 445 512 36,000  Level FlightAware ADS-B
Tue 02:32:17 PM 38.0560 -92.3620 253° West 445 512 36,000  Level FlightAware ADS-B
Tue 02:32:57 PM 38.0310 -92.4580 252° West 445 512 36,000  Level FlightAware ADS-B
Tue 02:33:37 PM 38.0100 -92.5420 252° West 445 512 36,000  Level FlightAware ADS-B
Tue 02:34:17 PM 37.9880 -92.6270 252° West 445 512 36,000  Level FlightAware ADS-B
Tue 02:34:57 PM 37.9670 -92.7110 252° West 445 512 36,000  Level FlightAware ADS-B
Tue 02:35:47 PM 37.9400 -92.8170 252° West 445 512 36,000  Level FlightAware ADS-B
Tue 02:36:27 PM 37.9180 -92.9010 252° West 445 512 36,000  Level FlightAware ADS-B
Tue 02:37:07 PM 37.8960 -92.9850 252° West 445 512 36,000  Level FlightAware ADS-B
Tue 02:38:02 PM 37.8390 -93.2210 253° West 447 514 36,000  Level FlightAware ADS-B
Tue 02:38:42 PM 37.8170 -93.3060 252° West 447 514 36,000  Level FlightAware ADS-B
Tue 02:39:32 PM 37.7900 -93.4120 252° West 447 514 36,000  Level FlightAware ADS-B
Tue 02:40:12 PM 37.7680 -93.4960 252° West 447 514 36,000  Level FlightAware ADS-B
Tue 02:40:52 PM 37.7470 -93.5810 253° West 447 514 36,000  Level FlightAware ADS-B
Tue 02:41:32 PM 37.7250 -93.6650 252° West 447 514 36,000  Level FlightAware ADS-B
Tue 02:42:12 PM 37.7030 -93.7500 252° West 447 514 36,000  Level FlightAware ADS-B
Tue 02:42:52 PM 37.6810 -93.8340 252° West 447 514 36,000 -1,412 Level FlightAware ADS-B
Tue 02:43:37 PM 37.6130 -94.0870 251° West 476 548 34,000 -1,333 Descending FlightAware ADS-B
Tue 02:44:22 PM 37.5830 -94.1970 251° West 476 548 34,000  Level FlightAware ADS-B
Tue 02:45:02 PM 37.5590 -94.2860 251° West 476 548 34,000  Level FlightAware ADS-B
Tue 02:45:42 PM 37.5340 -94.3750 251° West 476 548 34,000  Level FlightAware ADS-B
Tue 02:46:32 PM 37.5040 -94.4870 251° West 476 548 34,000  Level FlightAware ADS-B
Tue 02:47:12 PM 37.4790 -94.5760 251° West 476 548 34,000  Level FlightAware ADS-B
Tue 02:47:52 PM 37.4550 -94.6650 251° West 476 548 34,000  Level FlightAware ADS-B
Tue 02:48:32 PM 37.4310 -94.7540 251° West 476 548 34,000  Level FlightAware ADS-B
Tue 02:49:12 PM 37.4060 -94.8430 251° West 476 548 34,000  Level FlightAware ADS-B
Tue 02:50:02 PM 37.3760 -94.9550 251° West 476 548 34,000  Level FlightAware ADS-B
Tue 02:50:42 PM 37.3510 -95.0440 251° West 476 548 34,000  Level FlightAware ADS-B
Tue 02:51:22 PM 37.3270 -95.1330 251° West 476 548 34,000  Level FlightAware ADS-B
Tue 02:52:02 PM 37.3030 -95.2220 251° West 476 548 34,000  Level FlightAware ADS-B
Tue 02:52:42 PM 37.2780 -95.3110 251° West 476 548 34,000  Level FlightAware ADS-B
Tue 02:53:22 PM 37.2540 -95.4000 251° West 476 548 34,000  Level FlightAware ADS-B
Tue 02:54:30 PM 37.1500 -95.7778 251° West 471 542 34,000  Level Kansas City Center
Tue 02:55:32 PM 37.1053 -95.9336 250° West 473 544 34,000  Level Kansas City Center
Tue 02:56:34 PM 37.0608 -96.0881 250° West 472 543 34,000  Level Kansas City Center
Tue 02:57:36 PM 37.0167 -96.2403 250° West 470 541 34,000  Level Kansas City Center
Tue 03:03:12 PM 36.7620 -97.1100 250° West 471 542 34,000  Level FlightAware ADS-B
Tue 03:03:57 PM 36.7310 -97.2130 249° West 470 541 34,000  Level FlightAware ADS-B
Tue 03:04:37 PM 36.7060 -97.3000 250° West 470 541 34,000  Level FlightAware ADS-B
Tue 03:05:17 PM 36.6810 -97.3860 250° West 470 541 34,000  Level FlightAware ADS-B
Tue 03:06:07 PM 36.6490 -97.4950 250° West 470 541 34,000  Level FlightAware ADS-B
Tue 03:06:47 PM 36.6240 -97.5810 250° West 470 541 34,000  Level FlightAware ADS-B
Tue 03:07:27 PM 36.5980 -97.6680 250° West 470 541 34,000  Level FlightAware ADS-B
Tue 03:08:07 PM 36.5730 -97.7540 250° West 470 541 34,000  Level FlightAware ADS-B
Tue 03:08:47 PM 36.5480 -97.8410 250° West 470 541 34,000  Level FlightAware ADS-B
Tue 03:09:37 PM 36.5160 -97.9490 250° West 470 541 34,000  Level FlightAware ADS-B
Tue 03:10:17 PM 36.4910 -98.0350 250° West 470 541 34,000  Level FlightAware ADS-B
Tue 03:10:57 PM 36.4660 -98.1220 250° West 470 541 34,000  Level FlightAware ADS-B
Tue 03:11:37 PM 36.4400 -98.2080 249° West 470 541 34,000  Level FlightAware ADS-B
Tue 03:12:17 PM 36.4150 -98.2940 250° West 470 541 34,000  Level FlightAware ADS-B
Tue 03:12:57 PM 36.3900 -98.3810 250° West 470 541 34,000  Level FlightAware ADS-B
Tue 03:14:11 PM 36.2378 -98.7675 250° West 470 541 34,000  Level Kansas City Center
Tue 03:15:13 PM 36.1900 -98.9156 248° West 467 537 34,000  Level Kansas City Center
Tue 03:16:15 PM 36.1408 -99.0636 248° West 466 536 34,000  Level Kansas City Center
Tue 03:17:17 PM 36.0942 -99.2125 249° West 467 537 34,000  Level Kansas City Center
Tue 03:18:19 PM 36.0389 -99.3725 247° West 470 541 34,000  Level Kansas City Center
Tue 03:19:21 PM 35.9894 -99.5192 247° West 468 539 34,000  Level Kansas City Center
Tue 03:20:23 PM 35.9403 -99.6683 248° West 469 540 34,000  Level Kansas City Center
Tue 03:22:32 PM 35.8294 -99.9961 247° West 470 541 34,000  Level Albuquerque Center
Tue 03:23:34 PM 35.7789 -100.1456 247° West 471 542 34,000  Level Albuquerque Center
Tue 03:24:36 PM 35.7278 -100.2942 247° West 471 542 34,000  Level Albuquerque Center
Tue 03:25:38 PM 35.6769 -100.4431 247° West 470 541 34,000  Level Albuquerque Center
Tue 03:26:39 PM 35.6147 -100.6194 247° West 469 540 34,000  Level Albuquerque Center
Tue 03:27:41 PM 35.5658 -100.7694 248° West 471 542 34,000  Level Albuquerque Center
Tue 03:28:43 PM 35.5147 -100.9169 247° West 471 542 34,000  Level Albuquerque Center
Tue 03:29:44 PM 35.4622 -101.0636 246° West 471 542 34,000  Level Albuquerque Center
Tue 03:30:46 PM 35.4097 -101.2106 246° West 471 542 34,000  Level Albuquerque Center
Tue 03:31:48 PM 35.3578 -101.3606 247° West 471 542 34,000  Level Albuquerque Center
Tue 03:32:49 PM 35.3050 -101.5086 246° West 472 543 34,000  Level Albuquerque Center
Tue 03:33:51 PM 35.2511 -101.6594 246° West 471 542 34,000  Level Albuquerque Center
Tue 03:34:52 PM 35.2222 -101.8439 259° West 479 551 34,000  Level Albuquerque Center
Tue 03:35:54 PM 35.2117 -101.9828 265° West 470 541 34,000  Level Albuquerque Center
Tue 03:36:56 PM 35.1992 -102.1408 265° West 468 539 34,000  Level Albuquerque Center
Tue 03:37:57 PM 35.1839 -102.3300 264° West 467 537 34,000  Level Albuquerque Center
Tue 03:38:59 PM 35.1708 -102.4875 264° West 467 537 34,000  Level Albuquerque Center
Tue 03:40:01 PM 35.1578 -102.6444 264° West 466 536 34,000  Level Albuquerque Center
Tue 03:41:02 PM 35.1447 -102.8003 264° West 464 534 34,000  Level Albuquerque Center
Tue 03:42:04 PM 35.1306 -102.9567 264° West 464 534 34,000  Level Albuquerque Center
Tue 03:43:05 PM 35.1172 -103.1119 264° West 460 529 34,000  Level Albuquerque Center
Tue 03:44:07 PM 35.1039 -103.2686 264° West 460 529 34,000  Level Albuquerque Center
Tue 03:45:09 PM 35.0914 -103.4250 264° West 458 527 34,000  Level Albuquerque Center
Tue 03:46:10 PM 35.0853 -103.6075 268° West 457 526 34,000  Level Albuquerque Center
Tue 03:47:12 PM 35.0811 -103.7639 268° West 457 526 34,000  Level Albuquerque Center
Tue 03:48:14 PM 35.0767 -103.9211 268° West 457 526 34,000  Level Albuquerque Center
Tue 03:49:16 PM 35.0731 -104.0717 268° West 461 531 34,000  Level Albuquerque Center
Tue 03:50:17 PM 35.0642 -104.2397 266° West 458 527 34,000  Level Albuquerque Center
Tue 03:51:19 PM 35.0597 -104.3994 268° West 460 529 34,000  Level Albuquerque Center
Tue 03:52:21 PM 35.0536 -104.5586 267° West 462 532 34,000  Level Albuquerque Center
Tue 03:53:22 PM 35.0486 -104.7169 268° West 462 532 34,000  Level Albuquerque Center
Tue 03:54:24 PM 35.0425 -104.8739 267° West 460 529 34,000  Level Albuquerque Center
Tue 03:55:26 PM 35.0353 -105.0308 267° West 459 528 34,000  Level Albuquerque Center
Tue 04:01:17 PM 34.9950 -105.9480 267° West 456 525 34,000  Level FlightAware ADS-B
Tue 04:01:57 PM 34.9900 -106.0510 267° West 455 524 34,000  Level FlightAware ADS-B
Tue 04:02:42 PM 34.9840 -106.1680 266° West 454 522 34,000  Level FlightAware ADS-B
Tue 04:03:22 PM 34.9790 -106.2700 267° West 454 522 34,000  Level FlightAware ADS-B
Tue 04:04:07 PM 34.9730 -106.3890 267° West 454 522 34,000  Level FlightAware ADS-B
Tue 04:04:47 PM 34.9670 -106.4910 266° West 454 522 34,000  Level FlightAware ADS-B
Tue 04:05:27 PM 34.9620 -106.5900 267° West 453 521 34,000 494 Level FlightAware ADS-B
Tue 04:06:12 PM 34.9560 -106.7050 266° West 450 518 34,700 1,200 Climbing FlightAware ADS-B
Tue 04:06:52 PM 34.9500 -106.8040 266° West 449 517 35,700 918 Climbing FlightAware ADS-B
Tue 04:07:37 PM 34.9440 -106.9190 266° West 440 506 36,000 212 Climbing FlightAware ADS-B
Tue 04:08:17 PM 34.9380 -107.0160 266° West 433 498 36,000 525 Level FlightAware ADS-B
Tue 04:08:57 PM 34.9320 -107.1130 266° West 434 499 36,700 1,059 Climbing FlightAware ADS-B
Tue 04:09:42 PM 34.9260 -107.2200 266° West 432 497 37,500 918 Climbing FlightAware ADS-B
Tue 04:10:22 PM 34.9200 -107.3190 266° West 430 495 38,000 353 Climbing FlightAware ADS-B
Tue 04:11:07 PM 34.9140 -107.4290 266° West 427 491 38,000  Level FlightAware ADS-B
Tue 04:11:47 PM 34.9080 -107.5230 266° West 427 491 38,000  Level FlightAware ADS-B
Tue 04:12:27 PM 34.9020 -107.6210 266° West 432 497 38,000  Level FlightAware ADS-B
Tue 04:13:12 PM 34.8950 -107.7270 265° West 434 499 38,000  Level FlightAware ADS-B
Tue 04:13:52 PM 34.8890 -107.8250 266° West 435 501 38,000  Level FlightAware ADS-B
Tue 04:14:37 PM 34.8810 -107.9380 265° West 434 499 38,000  Level FlightAware ADS-B
Tue 04:15:17 PM 34.8750 -108.0330 266° West 437 503 38,000  Level FlightAware ADS-B
Tue 04:15:57 PM 34.8690 -108.1320 266° West 438 504 38,000  Level FlightAware ADS-B
Tue 04:16:42 PM 34.8610 -108.2390 265° West 438 504 38,000  Level FlightAware ADS-B
Tue 04:17:22 PM 34.8550 -108.3370 266° West 439 505 38,000  Level FlightAware ADS-B
Tue 04:18:07 PM 34.8470 -108.4520 265° West 438 504 38,000  Level FlightAware ADS-B
Tue 04:18:47 PM 34.8400 -108.5480 265° West 437 503 38,000  Level FlightAware ADS-B
Tue 04:19:27 PM 34.8330 -108.6430 265° West 437 503 38,000  Level FlightAware ADS-B
Tue 04:20:27 PM 34.8230 -108.7810 265° West 437 503 38,000  Level FlightAware ADS-B
Tue 04:21:07 PM 34.8170 -108.8640 265° West 437 503 38,000  Level FlightAware ADS-B
Tue 04:21:47 PM 34.8110 -108.9480 265° West 437 503 38,000  Level FlightAware ADS-B
Tue 04:22:27 PM 34.8050 -109.0310 265° West 437 503 38,000  Level FlightAware ADS-B
Tue 04:23:07 PM 34.7990 -109.1150 265° West 437 503 38,000  Level FlightAware ADS-B
Tue 04:23:57 PM 34.7920 -109.2190 265° West 437 503 38,000  Level FlightAware ADS-B
Tue 04:24:37 PM 34.7860 -109.3020 265° West 437 503 38,000  Level FlightAware ADS-B
Tue 04:25:17 PM 34.7800 -109.3860 265° West 437 503 38,000  Level FlightAware ADS-B
Tue 04:25:57 PM 34.7740 -109.4690 265° West 437 503 38,000  Level FlightAware ADS-B
Tue 04:26:37 PM 34.7680 -109.5520 265° West 437 503 38,000  Level FlightAware ADS-B
Tue 04:27:27 PM 34.7600 -109.6560 265° West 437 503 38,000  Level FlightAware ADS-B
Tue 04:28:07 PM 34.7540 -109.7400 265° West 437 503 38,000  Level FlightAware ADS-B
Tue 04:28:47 PM 34.7480 -109.8230 265° West 437 503 38,000  Level FlightAware ADS-B
Tue 04:29:27 PM 34.7420 -109.9060 265° West 437 503 38,000  Level FlightAware ADS-B
Tue 04:31:47 PM 34.6920 -110.4360 264° West 439 505 38,000  Level FlightAware ADS-B
Tue 04:32:27 PM 34.6830 -110.5360 264° West 439 505 38,000  Level FlightAware ADS-B
Tue 04:33:17 PM 34.6730 -110.6510 264° West 439 505 38,000  Level FlightAware ADS-B
Tue 04:33:57 PM 34.6640 -110.7590 264° West 439 505 38,000  Level FlightAware ADS-B
Tue 04:34:37 PM 34.6560 -110.8470 264° West 438 504 38,000  Level FlightAware ADS-B
Tue 04:35:17 PM 34.6460 -110.9570 264° West 435 501 38,000  Level FlightAware ADS-B
Tue 04:35:57 PM 34.6380 -111.0510 264° West 433 498 38,000  Level FlightAware ADS-B
Tue 04:36:42 PM 34.6280 -111.1580 264° West 427 491 38,000  Level FlightAware ADS-B
Tue 04:37:27 PM 34.6180 -111.2600 263° West 421 484 38,000  Level FlightAware ADS-B
Tue 04:38:12 PM 34.6090 -111.3650 264° West 424 488 38,000  Level FlightAware ADS-B
Tue 04:38:42 PM 34.6020 -111.4380 263° West 424 488 38,000  Level FlightAware ADS-B
Tue 04:39:32 PM 34.5900 -111.5630 263° West 426 490 38,000  Level FlightAware ADS-B
Tue 04:40:12 PM 34.5810 -111.6560 263° West 428 493 38,000  Level FlightAware ADS-B
Tue 04:40:57 PM 34.5710 -111.7600 263° West 431 496 38,000  Level FlightAware ADS-B
Tue 04:41:37 PM 34.5610 -111.8550 263° West 433 498 38,000  Level FlightAware ADS-B
Tue 04:42:17 PM 34.5520 -111.9520 264° West 434 499 38,000  Level FlightAware ADS-B
Tue 04:43:02 PM 34.5410 -112.0590 263° West 432 497 38,000  Level FlightAware ADS-B
Tue 04:43:37 PM 34.5330 -112.1400 263° West 432 497 38,000  Level FlightAware ADS-B
Tue 04:44:22 PM 34.5220 -112.2510 263° West 433 498 38,000  Level FlightAware ADS-B
Tue 04:45:12 PM 34.5090 -112.3730 263° West 431 496 38,000  Level FlightAware ADS-B
Tue 04:45:52 PM 34.5000 -112.4670 263° West 431 496 38,000  Level FlightAware ADS-B
Tue 04:46:27 PM 34.4910 -112.5500 263° West 430 495 38,000  Level FlightAware ADS-B
Tue 04:47:07 PM 34.4810 -112.6430 263° West 429 494 38,000  Level FlightAware ADS-B
Tue 04:47:57 PM 34.4680 -112.7660 263° West 428 493 38,000  Level FlightAware ADS-B
Tue 04:48:37 PM 34.4590 -112.8580 263° West 428 493 38,000  Level FlightAware ADS-B
Tue 04:49:22 PM 34.4480 -112.9600 263° West 427 491 38,000  Level FlightAware ADS-B
Tue 04:50:12 PM 34.4340 -113.0870 262° West 426 490 38,000  Level FlightAware ADS-B
Tue 04:51:02 PM 34.4210 -113.2080 263° West 426 490 38,000  Level FlightAware ADS-B
Tue 04:51:42 PM 34.4110 -113.2950 262° West 426 490 38,000  Level FlightAware ADS-B
Tue 04:52:37 PM 34.3950 -113.4450 263° West 424 488 38,000  Level FlightAware ADS-B
Tue 04:53:22 PM 34.3830 -113.5490 262° West 425 489 38,000  Level FlightAware ADS-B
Tue 04:53:57 PM 34.3740 -113.6260 262° West 424 488 38,000  Level FlightAware ADS-B
Tue 04:54:42 PM 34.3610 -113.7400 262° West 423 487 38,000  Level FlightAware ADS-B
Tue 04:55:27 PM 34.3490 -113.8440 262° West 423 487 38,000  Level FlightAware ADS-B
Tue 04:56:07 PM 34.3400 -113.9210 262° West 423 487 38,000  Level FlightAware ADS-B
Tue 04:56:52 PM 34.3270 -114.0400 262° West 424 488 38,000  Level FlightAware ADS-B
Tue 04:57:32 PM 34.3150 -114.1370 262° West 424 488 38,000  Level FlightAware ADS-B
Tue 04:58:12 PM 34.3040 -114.2290 262° West 424 488 38,000  Level FlightAware ADS-B
Tue 04:58:57 PM 34.2920 -114.3350 262° West 425 489 38,000  Level FlightAware ADS-B
Tue 04:59:42 PM 34.2820 -114.4190 262° West 425 489 38,000  Level FlightAware ADS-B
Tue 05:00:47 PM 34.2650 -114.5560 261° West 425 489 38,000  Level FlightAware ADS-B
Tue 05:01:27 PM 34.2540 -114.6360 261° West 425 489 38,000  Level FlightAware ADS-B
Tue 05:02:07 PM 34.2380 -114.7760 262° West 427 491 38,000  Level FlightAware ADS-B
Tue 05:02:47 PM 34.2280 -114.8570 262° West 427 491 38,000  Level FlightAware ADS-B
Tue 05:03:37 PM 34.2120 -114.9940 262° West 428 493 38,000  Level FlightAware ADS-B
Tue 05:04:12 PM 34.2010 -115.0770 261° West 428 493 38,000  Level FlightAware ADS-B
Tue 05:05:02 PM 34.1870 -115.1930 262° West 427 491 38,000  Level FlightAware ADS-B
Tue 05:05:42 PM 34.1740 -115.2880 261° West 426 490 38,000  Level FlightAware ADS-B
Tue 05:06:22 PM 34.1640 -115.3840 263° West 426 490 38,000  Level FlightAware ADS-B
Tue 05:07:07 PM 34.1520 -115.4860 262° West 426 490 38,000  Level FlightAware ADS-B
Tue 05:07:47 PM 34.1410 -115.5840 262° West 428 493 38,000 -212 Level FlightAware ADS-B
Tue 05:08:32 PM 34.1280 -115.6930 262° West 429 494 37,700 -750 Descending FlightAware ADS-B
Tue 05:09:07 PM 34.1190 -115.7730 262° West 433 498 37,000 -1,275 Descending FlightAware ADS-B
Tue 05:09:52 PM 34.1070 -115.8770 262° West 439 505 36,000 -1,333 Descending FlightAware ADS-B
Tue 05:10:37 PM 34.0930 -115.9930 262° West 443 510 35,000 -1,271 Descending FlightAware ADS-B
Tue 05:11:17 PM 34.0810 -116.0910 262° West 446 513 34,200 -1,341 Descending FlightAware ADS-B
Tue 05:12:02 PM 34.0680 -116.2010 262° West 453 521 33,100 -1,835 Descending FlightAware ADS-B
Tue 05:12:42 PM 34.0550 -116.3030 261° West 466 536 31,600 -2,894 Descending FlightAware ADS-B
Tue 05:13:27 PM 34.0410 -116.4180 262° West 476 548 29,000 -3,671 Descending FlightAware ADS-B
Tue 05:14:07 PM 34.0280 -116.5260 262° West 479 551 26,400 -3,450 Descending FlightAware ADS-B
Tue 05:14:47 PM 34.0150 -116.6310 262° West 466 536 24,400 -2,894 Descending FlightAware ADS-B
Tue 05:15:32 PM 34.0010 -116.7410 261° West 451 519 22,300 -2,824 Descending FlightAware ADS-B
Tue 05:16:12 PM 33.9890 -116.8400 262° West 432 497 20,400 -2,824 Descending FlightAware ADS-B
Tue 05:16:57 PM 33.9760 -116.9460 262° West 403 464 18,300 -2,188 Descending FlightAware ADS-B
Tue 05:17:37 PM 33.9650 -117.0310 261° West 384 442 17,300 -975 Descending FlightAware ADS-B
Tue 05:18:17 PM 33.9550 -117.1120 262° West 343 395 17,000 -635 Descending FlightAware ADS-B
Tue 05:19:02 PM 33.9470 -117.1910 263° West 317 365 16,400 -847 Descending FlightAware ADS-B
Tue 05:19:42 PM 33.9420 -117.2600 265° West 312 359 15,800 -918 Descending FlightAware ADS-B
Tue 05:20:27 PM 33.9350 -117.3400 264° West 310 357 15,100 -1,200 Descending FlightAware ADS-B
Tue 05:21:07 PM 33.9430 -117.4060 278° West 305 351 14,100 -1,425 Descending FlightAware ADS-B
Tue 05:21:47 PM 33.9650 -117.4680 293° West 299 344 13,200 -1,412 Descending FlightAware ADS-B
Tue 05:22:32 PM 33.9890 -117.5340 294° West 293 337 12,100 -1,412 Descending FlightAware ADS-B
Tue 05:23:12 PM 34.0090 -117.5950 292° West 287 330 11,200 -1,418 Descending FlightAware ADS-B
Tue 05:23:27 PM 34.0120 -117.6190 279° West 284 327 10,800 -1,200 Descending FlightAware ADS-B
Tue 05:24:07 PM 34.0080 -117.6810 266° West 276 318 10,100 -1,029 Descending FlightAware ADS-B
Tue 05:24:37 PM 34.0030 -117.7270 263° West 266 306 9,600 -1,200 Descending FlightAware ADS-B
Tue 05:25:07 PM 33.9990 -117.7690 263° West 263 303 8,900 -1,333 Descending FlightAware ADS-B
Tue 05:25:22 PM 33.9970 -117.7890 263° West 261 300 8,600 -1,200 Descending FlightAware ADS-B
Tue 05:25:47 PM 33.9930 -117.8270 263° West 259 298 8,100 -1,200 Descending FlightAware ADS-B
Tue 05:26:02 PM 33.9910 -117.8470 263° West 258 297 7,800 -1,067 Descending FlightAware ADS-B
Tue 05:26:32 PM 33.9870 -117.8900 264° West 250 288 7,300 -1,091 Descending FlightAware ADS-B
Tue 05:26:57 PM 33.9830 -117.9240 262° West 234 269 6,800 -1,309 Descending FlightAware ADS-B
Tue 05:27:27 PM 33.9790 -117.9630 263° West 231 266 6,100 -1,309 Descending FlightAware ADS-B
Tue 05:27:52 PM 33.9760 -117.9940 263° West 230 265 5,600 -1,091 Descending FlightAware ADS-B
Tue 05:28:22 PM 33.9730 -118.0320 265° West 229 264 5,100 -600 Descending FlightAware ADS-B
Tue 05:28:52 PM 33.9690 -118.0700 263° West 229 264 5,000 -436 Descending FlightAware ADS-B
Tue 05:29:17 PM 33.9660 -118.1040 264° West 233 268 4,700 -1,091 Descending FlightAware ADS-B
Tue 05:29:47 PM 33.9620 -118.1430 263° West 229 264 4,000 -1,200 Descending FlightAware ADS-B
Tue 05:30:02 PM 33.9600 -118.1600 262° West 221 254 3,800 -1,050 Descending FlightAware ADS-B
Tue 05:30:27 PM 33.9570 -118.1890 263° West 204 235 3,300 -1,091 Descending FlightAware ADS-B
Tue 05:30:57 PM 33.9540 -118.2220 264° West 196 226 2,800 -982 Descending FlightAware ADS-B
Tue 05:31:22 PM 33.9510 -118.2490 262° West 197 227 2,400 -960 Descending FlightAware ADS-B
Tue 05:31:47 PM 33.9480 -118.2740 262° West 194 223 2,000 -646 Descending FlightAware ADS-B
Tue 05:32:27 PM 33.9470 -118.2930 266° West 185 213 1,700 -686 Descending FlightAware ADS-B
Tue 05:32:57 PM 33.9440 -118.3190 262° West 151 174 1,200 -545 Descending FlightAware ADS-B
Tue 05:33:22 PM 33.9420 -118.3380 263° West 151 174 1,200 -800 Level FlightAware ADS-B
Tue 05:33:57 PM 33.9380 -118.3740 262° West 140 161 400 -771 Descending FlightAware ADS-B
Tue 05:34:32 PM 33.9360 -118.3960 264° West 139 160 300 -171 Descending FlightAware ADS-B

Login

Don't have an account? Register now (free) for customized features, flight alerts, and more!